AER weather

Sochi International Airport
Sochi, Krasnodar Krai, Russia

Public forecast

Using degrees Celsius for public forecast. Weather courtesy of forecast.io.

Current aviation weather report (METAR) for Sochi International Airport

Retrieved 2019/10/21 21:30 UTC (0 seconds ago):

URSS 212130Z 06003MPS 9999 SCT013 15/13 Q1020 R02/010070 R06/010070 NOSIG RMK R06/07002MPS MT OBSC QFE764

Aviation forecast (TAF) for Sochi International Airport

Retrieved 2019/10/21 21:24 UTC (0 seconds ago):

TAF URSS 211956Z 2121/2221 05005MPS 9999 NSC TEMPO 2121/2205 VRB01MPS BKN008 BECMG 2208/2209 28004G09MPS FEW030 BECMG 2216/2218 05005MPS BKN015